KAHQ

Details ICAO KAHQ
Name WAHOO MUNI
Region United States
Timezone America/Chicago (UTC-6.0)
Plans Departing 0
Arriving 0
Stats Elevation 1,224 ft / 373 m (AMSL)
Location 41.240369° -96.594556°
Runways 2
Magnetic Variation 3.028° E
Sunrise 2017-12-14 13:45:51 UTC / 2017-12-14 07:45:51 Local
Sunset 2017-12-14 22:59:19 UTC / 2017-12-14 16:59:19 Local
Advertisement - Login to hide

Runways

ID Width Length Bearing (true) Bearing (mag) Surface Threshold Offset Overrun Length
02 75 ft / 23 m 4,108 ft / 1,252 m 23.90° 20.87° Concrete 187 ft / 57 m 0 ft / 0 m
13 151 ft / 46 m 3,874 ft / 1,181 m 141.00° 137.97° Unknown 0 ft / 0 m 0 ft / 0 m
20 75 ft / 23 m 4,108 ft / 1,252 m 203.90° 200.87° Concrete 0 ft / 0 m 0 ft / 0 m
31 151 ft / 46 m 3,874 ft / 1,181 m 321.00° 317.97° Unknown 0 ft / 0 m 0 ft / 0 m

Map

Weather


0- 5 10 15 20 25 30 35+ Temperature / ° C

Clouds and Precipitation
Forecast for 2017-12-15 06:00 UTC. Updated 2 hours ago

Ground ~20,000 ft ~40,000 ft Winds

METAR

KAHQ 150455Z AUTO 34012G15KT 10SM SCT025 SCT048 OVC050 02/M03 A3014 RMK AO2 T00211027

TAF

Not found

Frequencies

Unicom 122.70 MHz CTAF/UNICOM
Approach 120.10 MHz OMAHA APP/DEP
Warning: Do not use this data for real-world aviation or navigation. No guarantee of current accuracy is given.